sensor_id;sensor_type;location;lat;lon;timestamp;P1;durP1;ratioP1;P2;durP2;ratioP2
47103;SDS011;32853;52.164;5.400;2023-02-08T00:01:23;21.23;;;9.00;;
47103;SDS011;32853;52.164;5.400;2023-02-08T00:03:49;23.95;;;10.98;;
47103;SDS011;32853;52.164;5.400;2023-02-08T00:06:16;23.65;;;10.30;;
47103;SDS011;32853;52.164;5.400;2023-02-08T00:08:51;18.33;;;9.43;;
47103;SDS011;32853;52.164;5.400;2023-02-08T00:11:35;18.40;;;8.82;;
47103;SDS011;32853;52.164;5.400;2023-02-08T00:14:01;19.03;;;9.70;;
47103;SDS011;32853;52.164;5.400;2023-02-08T00:18:56;27.90;;;9.75;;
47103;SDS011;32853;52.164;5.400;2023-02-08T00:21:21;21.95;;;9.05;;
47103;SDS011;32853;52.164;5.400;2023-02-08T00:23:55;22.37;;;9.83;;
47103;SDS011;32853;52.164;5.400;2023-02-08T00:28:53;15.17;;;8.13;;
47103;SDS011;32853;52.164;5.400;2023-02-08T00:31:34;19.02;;;8.98;;
47103;SDS011;32853;52.164;5.400;2023-02-08T00:34:00;20.40;;;9.10;;
47103;SDS011;32853;52.164;5.400;2023-02-08T00:36:27;16.55;;;8.70;;
47103;SDS011;32853;52.164;5.400;2023-02-08T00:38:53;19.00;;;8.93;;
47103;SDS011;32853;52.164;5.400;2023-02-08T00:41:19;23.00;;;9.43;;
47103;SDS011;32853;52.164;5.400;2023-02-08T00:43:48;18.80;;;8.67;;
47103;SDS011;32853;52.164;5.400;2023-02-08T00:46:13;17.37;;;9.07;;
47103;SDS011;32853;52.164;5.400;2023-02-08T00:51:11;17.88;;;9.18;;
47103;SDS011;32853;52.164;5.400;2023-02-08T00:53:38;21.40;;;9.83;;
47103;SDS011;32853;52.164;5.400;2023-02-08T00:56:19;18.07;;;9.13;;
47103;SDS011;32853;52.164;5.400;2023-02-08T00:58:48;14.97;;;7.80;;
47103;SDS011;32853;52.164;5.400;2023-02-08T01:01:13;21.97;;;9.17;;
47103;SDS011;32853;52.164;5.400;2023-02-08T01:03:43;20.45;;;8.30;;
47103;SDS011;32853;52.164;5.400;2023-02-08T01:06:10;18.23;;;8.93;;
47103;SDS011;32853;52.164;5.400;2023-02-08T01:08:38;18.93;;;9.13;;
47103;SDS011;32853;52.164;5.400;2023-02-08T01:11:05;21.10;;;9.53;;
47103;SDS011;32853;52.164;5.400;2023-02-08T01:13:36;22.23;;;9.90;;
47103;SDS011;32853;52.164;5.400;2023-02-08T01:16:15;16.88;;;8.70;;
47103;SDS011;32853;52.164;5.400;2023-02-08T01:18:43;19.93;;;9.97;;
47103;SDS011;32853;52.164;5.400;2023-02-08T01:21:11;20.57;;;10.07;;
47103;SDS011;32853;52.164;5.400;2023-02-08T01:23:39;26.47;;;11.73;;
47103;SDS011;32853;52.164;5.400;2023-02-08T01:26:06;21.33;;;10.33;;
47103;SDS011;32853;52.164;5.400;2023-02-08T01:28:32;58.43;;;19.33;;
47103;SDS011;32853;52.164;5.400;2023-02-08T01:30:58;51.05;;;18.17;;
47103;SDS011;32853;52.164;5.400;2023-02-08T01:33:23;33.30;;;15.13;;
47103;SDS011;32853;52.164;5.400;2023-02-08T01:35:49;41.00;;;14.77;;
47103;SDS011;32853;52.164;5.400;2023-02-08T01:38:23;53.90;;;19.07;;
47103;SDS011;32853;52.164;5.400;2023-02-08T01:40:49;28.73;;;13.13;;
47103;SDS011;32853;52.164;5.400;2023-02-08T01:45:53;19.90;;;10.03;;
47103;SDS011;32853;52.164;5.400;2023-02-08T01:51:06;18.50;;;10.37;;
47103;SDS011;32853;52.164;5.400;2023-02-08T01:53:38;16.87;;;8.20;;
47103;SDS011;32853;52.164;5.400;2023-02-08T01:56:06;15.33;;;8.80;;
47103;SDS011;32853;52.164;5.400;2023-02-08T01:58:45;15.57;;;8.87;;
47103;SDS011;32853;52.164;5.400;2023-02-08T02:01:20;18.57;;;9.27;;
47103;SDS011;32853;52.164;5.400;2023-02-08T02:03:46;15.70;;;8.67;;
47103;SDS011;32853;52.164;5.400;2023-02-08T02:06:13;21.13;;;9.37;;
47103;SDS011;32853;52.164;5.400;2023-02-08T02:08:50;17.37;;;8.93;;
47103;SDS011;32853;52.164;5.400;2023-02-08T02:11:24;16.27;;;7.33;;
47103;SDS011;32853;52.164;5.400;2023-02-08T02:13:57;20.13;;;8.77;;
47103;SDS011;32853;52.164;5.400;2023-02-08T02:16:27;20.97;;;9.10;;
47103;SDS011;32853;52.164;5.400;2023-02-08T02:18:53;18.77;;;9.40;;
47103;SDS011;32853;52.164;5.400;2023-02-08T02:24:15;17.70;;;8.13;;
47103;SDS011;32853;52.164;5.400;2023-02-08T02:32:51;21.77;;;8.23;;
47103;SDS011;32853;52.164;5.400;2023-02-08T02:38:31;16.93;;;8.67;;
47103;SDS011;32853;52.164;5.400;2023-02-08T02:41:21;16.47;;;7.67;;
47103;SDS011;32853;52.164;5.400;2023-02-08T02:47:04;15.55;;;7.72;;
47103;SDS011;32853;52.164;5.400;2023-02-08T02:49:47;16.77;;;7.63;;
47103;SDS011;32853;52.164;5.400;2023-02-08T02:52:18;17.40;;;7.47;;
47103;SDS011;32853;52.164;5.400;2023-02-08T02:54:58;14.50;;;7.87;;
47103;SDS011;32853;52.164;5.400;2023-02-08T02:57:35;17.33;;;7.90;;
47103;SDS011;32853;52.164;5.400;2023-02-08T03:00:07;15.70;;;8.18;;
47103;SDS011;32853;52.164;5.400;2023-02-08T03:02:36;15.57;;;8.57;;
47103;SDS011;32853;52.164;5.400;2023-02-08T03:05:02;18.17;;;8.20;;
47103;SDS011;32853;52.164;5.400;2023-02-08T03:32:25;11.53;;;6.73;;
47103;SDS011;32853;52.164;5.400;2023-02-08T03:37:46;13.77;;;7.32;;
47103;SDS011;32853;52.164;5.400;2023-02-08T03:40:36;16.53;;;9.00;;
47103;SDS011;32853;52.164;5.400;2023-02-08T03:43:10;15.67;;;7.70;;
47103;SDS011;32853;52.164;5.400;2023-02-08T03:45:44;14.47;;;8.07;;
47103;SDS011;32853;52.164;5.400;2023-02-08T03:48:13;22.53;;;7.80;;
47103;SDS011;32853;52.164;5.400;2023-02-08T03:50:48;15.87;;;6.77;;
47103;SDS011;32853;52.164;5.400;2023-02-08T03:55:55;13.53;;;7.30;;
47103;SDS011;32853;52.164;5.400;2023-02-08T03:58:46;14.27;;;7.07;;
47103;SDS011;32853;52.164;5.400;2023-02-08T04:01:24;15.20;;;8.17;;
47103;SDS011;32853;52.164;5.400;2023-02-08T04:03:54;13.67;;;6.90;;
47103;SDS011;32853;52.164;5.400;2023-02-08T04:06:21;14.43;;;7.60;;
47103;SDS011;32853;52.164;5.400;2023-02-08T04:08:47;16.37;;;7.00;;
47103;SDS011;32853;52.164;5.400;2023-02-08T04:11:13;13.13;;;6.43;;
47103;SDS011;32853;52.164;5.400;2023-02-08T04:13:40;15.60;;;7.90;;
47103;SDS011;32853;52.164;5.400;2023-02-08T04:16:13;15.13;;;7.80;;
47103;SDS011;32853;52.164;5.400;2023-02-08T04:18:38;19.63;;;7.93;;
47103;SDS011;32853;52.164;5.400;2023-02-08T04:21:04;13.60;;;6.77;;
47103;SDS011;32853;52.164;5.400;2023-02-08T04:23:29;15.80;;;7.00;;
47103;SDS011;32853;52.164;5.400;2023-02-08T04:25:55;10.20;;;6.07;;
47103;SDS011;32853;52.164;5.400;2023-02-08T04:28:20;18.77;;;8.10;;
47103;SDS011;32853;52.164;5.400;2023-02-08T04:30:46;12.70;;;7.43;;
47103;SDS011;32853;52.164;5.400;2023-02-08T04:33:12;17.00;;;6.87;;
47103;SDS011;32853;52.164;5.400;2023-02-08T04:35:39;12.47;;;6.83;;
47103;SDS011;32853;52.164;5.400;2023-02-08T04:38:07;16.17;;;7.40;;
47103;SDS011;32853;52.164;5.400;2023-02-08T04:40:33;13.53;;;6.53;;
47103;SDS011;32853;52.164;5.400;2023-02-08T04:45:33;11.97;;;6.30;;
47103;SDS011;32853;52.164;5.400;2023-02-08T04:48:03;18.00;;;7.83;;
47103;SDS011;32853;52.164;5.400;2023-02-08T04:50:39;19.17;;;7.65;;
47103;SDS011;32853;52.164;5.400;2023-02-08T04:53:15;13.47;;;7.03;;
47103;SDS011;32853;52.164;5.400;2023-02-08T04:55:40;20.47;;;8.50;;
47103;SDS011;32853;52.164;5.400;2023-02-08T04:58:11;18.00;;;7.37;;
47103;SDS011;32853;52.164;5.400;2023-02-08T05:00:37;16.23;;;7.97;;
47103;SDS011;32853;52.164;5.400;2023-02-08T05:03:03;17.87;;;8.17;;
47103;SDS011;32853;52.164;5.400;2023-02-08T05:05:28;15.33;;;6.93;;
47103;SDS011;32853;52.164;5.400;2023-02-08T05:08:03;15.07;;;6.80;;
47103;SDS011;32853;52.164;5.400;2023-02-08T05:13:14;13.80;;;7.40;;
47103;SDS011;32853;52.164;5.400;2023-02-08T05:15:51;14.17;;;6.23;;
47103;SDS011;32853;52.164;5.400;2023-02-08T05:18:16;14.27;;;7.60;;
47103;SDS011;32853;52.164;5.400;2023-02-08T05:20:42;14.20;;;7.43;;
47103;SDS011;32853;52.164;5.400;2023-02-08T05:23:09;13.07;;;6.00;;
47103;SDS011;32853;52.164;5.400;2023-02-08T05:25:37;15.10;;;8.20;;
47103;SDS011;32853;52.164;5.400;2023-02-08T05:28:03;17.80;;;7.50;;
47103;SDS011;32853;52.164;5.400;2023-02-08T05:30:29;15.23;;;6.70;;
47103;SDS011;32853;52.164;5.400;2023-02-08T05:35:30;18.40;;;7.20;;
47103;SDS011;32853;52.164;5.400;2023-02-08T05:37:55;14.27;;;7.37;;
47103;SDS011;32853;52.164;5.400;2023-02-08T05:40:24;18.90;;;7.60;;
47103;SDS011;32853;52.164;5.400;2023-02-08T05:42:49;12.47;;;5.93;;
47103;SDS011;32853;52.164;5.400;2023-02-08T05:45:15;12.40;;;6.40;;
47103;SDS011;32853;52.164;5.400;2023-02-08T05:47:40;12.23;;;7.17;;
47103;SDS011;32853;52.164;5.400;2023-02-08T05:50:06;16.27;;;6.80;;
47103;SDS011;32853;52.164;5.400;2023-02-08T05:52:32;12.30;;;7.13;;
47103;SDS011;32853;52.164;5.400;2023-02-08T05:54:58;12.00;;;6.40;;
47103;SDS011;32853;52.164;5.400;2023-02-08T05:57:23;16.47;;;7.53;;
47103;SDS011;32853;52.164;5.400;2023-02-08T05:59:49;14.80;;;7.37;;
47103;SDS011;32853;52.164;5.400;2023-02-08T06:02:15;21.33;;;7.40;;
47103;SDS011;32853;52.164;5.400;2023-02-08T06:04:56;16.87;;;6.87;;
47103;SDS011;32853;52.164;5.400;2023-02-08T06:07:31;19.93;;;8.23;;
47103;SDS011;32853;52.164;5.400;2023-02-08T06:09:59;16.83;;;7.87;;
47103;SDS011;32853;52.164;5.400;2023-02-08T06:12:30;10.90;;;6.27;;
47103;SDS011;32853;52.164;5.400;2023-02-08T06:14:56;16.70;;;7.50;;
47103;SDS011;32853;52.164;5.400;2023-02-08T06:17:21;11.17;;;6.60;;
47103;SDS011;32853;52.164;5.400;2023-02-08T06:19:46;11.80;;;6.00;;
47103;SDS011;32853;52.164;5.400;2023-02-08T06:22:11;14.30;;;7.60;;
47103;SDS011;32853;52.164;5.400;2023-02-08T06:24:37;14.77;;;7.60;;
47103;SDS011;32853;52.164;5.400;2023-02-08T06:27:02;13.77;;;6.70;;
47103;SDS011;32853;52.164;5.400;2023-02-08T06:29:30;19.27;;;7.10;;
47103;SDS011;32853;52.164;5.400;2023-02-08T06:31:55;10.33;;;5.63;;
47103;SDS011;32853;52.164;5.400;2023-02-08T06:34:22;15.17;;;6.93;;
47103;SDS011;32853;52.164;5.400;2023-02-08T06:36:47;16.90;;;7.07;;
47103;SDS011;32853;52.164;5.400;2023-02-08T06:39:13;17.97;;;6.37;;
47103;SDS011;32853;52.164;5.400;2023-02-08T06:41:38;13.63;;;7.87;;
47103;SDS011;32853;52.164;5.400;2023-02-08T06:44:05;20.87;;;7.80;;
47103;SDS011;32853;52.164;5.400;2023-02-08T06:46:30;16.50;;;7.50;;
47103;SDS011;32853;52.164;5.400;2023-02-08T06:49:07;15.87;;;8.03;;
47103;SDS011;32853;52.164;5.400;2023-02-08T06:54:13;26.50;;;7.60;;
47103;SDS011;32853;52.164;5.400;2023-02-08T06:56:39;17.20;;;8.13;;
47103;SDS011;32853;52.164;5.400;2023-02-08T06:59:06;13.30;;;6.90;;
47103;SDS011;32853;52.164;5.400;2023-02-08T07:01:31;18.20;;;8.77;;
47103;SDS011;32853;52.164;5.400;2023-02-08T07:04:09;15.80;;;6.87;;
47103;SDS011;32853;52.164;5.400;2023-02-08T07:06:34;14.40;;;7.03;;
47103;SDS011;32853;52.164;5.400;2023-02-08T07:09:00;23.73;;;6.87;;
47103;SDS011;32853;52.164;5.400;2023-02-08T07:11:31;19.50;;;7.10;;
47103;SDS011;32853;52.164;5.400;2023-02-08T07:14:00;11.27;;;6.00;;
47103;SDS011;32853;52.164;5.400;2023-02-08T07:16:27;14.60;;;6.80;;
47103;SDS011;32853;52.164;5.400;2023-02-08T07:18:53;17.63;;;7.93;;
47103;SDS011;32853;52.164;5.400;2023-02-08T07:21:19;16.93;;;6.50;;
47103;SDS011;32853;52.164;5.400;2023-02-08T07:23:49;12.93;;;8.23;;
47103;SDS011;32853;52.164;5.400;2023-02-08T07:26:29;14.90;;;8.37;;
47103;SDS011;32853;52.164;5.400;2023-02-08T07:29:03;15.87;;;6.97;;
47103;SDS011;32853;52.164;5.400;2023-02-08T07:31:34;21.20;;;8.77;;
47103;SDS011;32853;52.164;5.400;2023-02-08T07:33:59;13.27;;;7.13;;
47103;SDS011;32853;52.164;5.400;2023-02-08T07:36:25;26.73;;;8.07;;
47103;SDS011;32853;52.164;5.400;2023-02-08T07:38:50;13.93;;;6.73;;
47103;SDS011;32853;52.164;5.400;2023-02-08T07:41:15;14.33;;;6.23;;
47103;SDS011;32853;52.164;5.400;2023-02-08T07:43:41;17.03;;;7.23;;
47103;SDS011;32853;52.164;5.400;2023-02-08T07:46:16;24.17;;;7.53;;
47103;SDS011;32853;52.164;5.400;2023-02-08T07:48:43;16.60;;;6.13;;
47103;SDS011;32853;52.164;5.400;2023-02-08T07:51:09;15.87;;;7.90;;
47103;SDS011;32853;52.164;5.400;2023-02-08T07:53:36;17.00;;;7.30;;
47103;SDS011;32853;52.164;5.400;2023-02-08T07:56:14;17.07;;;7.03;;
47103;SDS011;32853;52.164;5.400;2023-02-08T07:58:57;20.83;;;5.73;;
47103;SDS011;32853;52.164;5.400;2023-02-08T08:01:35;16.47;;;7.53;;
47103;SDS011;32853;52.164;5.400;2023-02-08T08:06:54;21.57;;;7.03;;
47103;SDS011;32853;52.164;5.400;2023-02-08T08:09:21;17.13;;;7.78;;
47103;SDS011;32853;52.164;5.400;2023-02-08T08:11:48;25.10;;;8.10;;
47103;SDS011;32853;52.164;5.400;2023-02-08T08:14:17;11.83;;;7.77;;
47103;SDS011;32853;52.164;5.400;2023-02-08T08:16:43;13.13;;;6.60;;
47103;SDS011;32853;52.164;5.400;2023-02-08T08:19:08;16.27;;;7.93;;
47103;SDS011;32853;52.164;5.400;2023-02-08T08:21:33;15.30;;;8.00;;
47103;SDS011;32853;52.164;5.400;2023-02-08T08:23:59;31.07;;;7.87;;
47103;SDS011;32853;52.164;5.400;2023-02-08T08:26:24;12.80;;;6.83;;
47103;SDS011;32853;52.164;5.400;2023-02-08T08:28:50;16.30;;;7.03;;
47103;SDS011;32853;52.164;5.400;2023-02-08T08:31:17;16.17;;;7.50;;
47103;SDS011;32853;52.164;5.400;2023-02-08T08:33:45;19.73;;;8.47;;
47103;SDS011;32853;52.164;5.400;2023-02-08T08:36:11;13.33;;;7.53;;
47103;SDS011;32853;52.164;5.400;2023-02-08T08:38:41;19.20;;;8.30;;
47103;SDS011;32853;52.164;5.400;2023-02-08T08:41:08;21.57;;;8.37;;
47103;SDS011;32853;52.164;5.400;2023-02-08T08:43:35;16.53;;;7.50;;
47103;SDS011;32853;52.164;5.400;2023-02-08T08:46:00;18.47;;;8.33;;
47103;SDS011;32853;52.164;5.400;2023-02-08T08:48:30;16.40;;;7.47;;
47103;SDS011;32853;52.164;5.400;2023-02-08T08:51:02;12.23;;;6.90;;
47103;SDS011;32853;52.164;5.400;2023-02-08T08:53:34;23.15;;;7.07;;
47103;SDS011;32853;52.164;5.400;2023-02-08T08:56:08;13.45;;;7.65;;
47103;SDS011;32853;52.164;5.400;2023-02-08T08:58:33;16.90;;;8.93;;
47103;SDS011;32853;52.164;5.400;2023-02-08T09:00:59;16.60;;;8.10;;
47103;SDS011;32853;52.164;5.400;2023-02-08T09:03:25;19.40;;;8.53;;
47103;SDS011;32853;52.164;5.400;2023-02-08T09:06:09;20.53;;;8.03;;
47103;SDS011;32853;52.164;5.400;2023-02-08T09:08:43;14.57;;;7.70;;
47103;SDS011;32853;52.164;5.400;2023-02-08T09:11:10;20.33;;;8.60;;
47103;SDS011;32853;52.164;5.400;2023-02-08T09:13:37;19.03;;;7.07;;
47103;SDS011;32853;52.164;5.400;2023-02-08T09:16:04;19.77;;;8.17;;
47103;SDS011;32853;52.164;5.400;2023-02-08T09:21:09;17.67;;;7.13;;
47103;SDS011;32853;52.164;5.400;2023-02-08T09:23:43;19.67;;;7.80;;
47103;SDS011;32853;52.164;5.400;2023-02-08T09:26:14;15.90;;;8.60;;
47103;SDS011;32853;52.164;5.400;2023-02-08T09:28:40;18.93;;;8.97;;
47103;SDS011;32853;52.164;5.400;2023-02-08T09:31:07;17.47;;;7.70;;
47103;SDS011;32853;52.164;5.400;2023-02-08T09:33:39;20.27;;;8.98;;
47103;SDS011;32853;52.164;5.400;2023-02-08T09:36:04;13.75;;;7.20;;
47103;SDS011;32853;52.164;5.400;2023-02-08T09:38:30;17.23;;;8.15;;
47103;SDS011;32853;52.164;5.400;2023-02-08T09:46:55;17.20;;;7.88;;
47103;SDS011;32853;52.164;5.400;2023-02-08T09:49:34;14.02;;;8.52;;
47103;SDS011;32853;52.164;5.400;2023-02-08T09:52:20;12.13;;;6.40;;
47103;SDS011;32853;52.164;5.400;2023-02-08T09:54:53;16.50;;;8.48;;
47103;SDS011;32853;52.164;5.400;2023-02-08T09:57:28;16.83;;;7.93;;
47103;SDS011;32853;52.164;5.400;2023-02-08T10:00:11;16.55;;;6.80;;
47103;SDS011;32853;52.164;5.400;2023-02-08T10:02:52;17.80;;;7.15;;
47103;SDS011;32853;52.164;5.400;2023-02-08T10:05:24;16.05;;;7.63;;
47103;SDS011;32853;52.164;5.400;2023-02-08T10:07:53;14.13;;;7.43;;
47103;SDS011;32853;52.164;5.400;2023-02-08T10:18:10;14.40;;;7.22;;
47103;SDS011;32853;52.164;5.400;2023-02-08T10:21:02;14.40;;;7.32;;
47103;SDS011;32853;52.164;5.400;2023-02-08T10:26:25;12.00;;;6.43;;
47103;SDS011;32853;52.164;5.400;2023-02-08T10:34:44;16.55;;;6.50;;
47103;SDS011;32853;52.164;5.400;2023-02-08T10:37:24;15.02;;;6.88;;
47103;SDS011;32853;52.164;5.400;2023-02-08T10:39:54;11.35;;;6.18;;
47103;SDS011;32853;52.164;5.400;2023-02-08T10:42:23;11.75;;;7.00;;
47103;SDS011;32853;52.164;5.400;2023-02-08T10:53:00;14.55;;;7.82;;
47103;SDS011;32853;52.164;5.400;2023-02-08T10:55:30;21.58;;;6.68;;
47103;SDS011;32853;52.164;5.400;2023-02-08T10:57:59;9.40;;;6.05;;
47103;SDS011;32853;52.164;5.400;2023-02-08T11:00:27;12.07;;;6.65;;
47103;SDS011;32853;52.164;5.400;2023-02-08T11:02:57;12.90;;;6.15;;
47103;SDS011;32853;52.164;5.400;2023-02-08T11:05:38;15.20;;;7.40;;
47103;SDS011;32853;52.164;5.400;2023-02-08T11:08:11;19.88;;;7.32;;
47103;SDS011;32853;52.164;5.400;2023-02-08T11:10:39;14.18;;;7.30;;
47103;SDS011;32853;52.164;5.400;2023-02-08T11:16:22;12.10;;;6.05;;
47103;SDS011;32853;52.164;5.400;2023-02-08T11:21:33;14.10;;;6.22;;
47103;SDS011;32853;52.164;5.400;2023-02-08T11:24:16;14.07;;;6.10;;
47103;SDS011;32853;52.164;5.400;2023-02-08T11:26:51;20.25;;;5.95;;
47103;SDS011;32853;52.164;5.400;2023-02-08T11:29:18;16.02;;;6.35;;
47103;SDS011;32853;52.164;5.400;2023-02-08T11:34:32;17.30;;;6.82;;
47103;SDS011;32853;52.164;5.400;2023-02-08T11:37:04;11.40;;;5.93;;
47103;SDS011;32853;52.164;5.400;2023-02-08T11:39:57;8.88;;;5.15;;
47103;SDS011;32853;52.164;5.400;2023-02-08T11:45:19;10.52;;;5.63;;
47103;SDS011;32853;52.164;5.400;2023-02-08T11:47:47;10.27;;;5.20;;
47103;SDS011;32853;52.164;5.400;2023-02-08T11:50:24;13.88;;;5.60;;
47103;SDS011;32853;52.164;5.400;2023-02-08T11:52:59;8.57;;;5.75;;
47103;SDS011;32853;52.164;5.400;2023-02-08T11:55:28;14.27;;;5.75;;
47103;SDS011;32853;52.164;5.400;2023-02-08T11:58:05;9.70;;;4.78;;
47103;SDS011;32853;52.164;5.400;2023-02-08T12:00:42;11.52;;;5.70;;
47103;SDS011;32853;52.164;5.400;2023-02-08T12:03:36;15.13;;;4.70;;
47103;SDS011;32853;52.164;5.400;2023-02-08T12:06:14;8.68;;;4.00;;
47103;SDS011;32853;52.164;5.400;2023-02-08T12:11:44;7.53;;;3.58;;
47103;SDS011;32853;52.164;5.400;2023-02-08T12:14:31;13.13;;;4.75;;
47103;SDS011;32853;52.164;5.400;2023-02-08T12:22:47;12.13;;;4.35;;
47103;SDS011;32853;52.164;5.400;2023-02-08T12:25:35;7.30;;;4.05;;
47103;SDS011;32853;52.164;5.400;2023-02-08T12:31:09;8.05;;;4.15;;
47103;SDS011;32853;52.164;5.400;2023-02-08T12:33:43;7.65;;;3.95;;
47103;SDS011;32853;52.164;5.400;2023-02-08T12:36:37;7.28;;;4.28;;
47103;SDS011;32853;52.164;5.400;2023-02-08T12:42:23;11.25;;;3.97;;
47103;SDS011;32853;52.164;5.400;2023-02-08T12:50:52;7.78;;;3.97;;
47103;SDS011;32853;52.164;5.400;2023-02-08T12:53:33;8.10;;;3.88;;
47103;SDS011;32853;52.164;5.400;2023-02-08T12:56:10;6.30;;;3.50;;
47103;SDS011;32853;52.164;5.400;2023-02-08T12:58:45;9.82;;;4.90;;
47103;SDS011;32853;52.164;5.400;2023-02-08T13:01:20;11.05;;;4.55;;
47103;SDS011;32853;52.164;5.400;2023-02-08T13:06:22;6.88;;;3.65;;
47103;SDS011;32853;52.164;5.400;2023-02-08T13:08:59;7.53;;;4.25;;
47103;SDS011;32853;52.164;5.400;2023-02-08T13:14:22;7.57;;;4.38;;
47103;SDS011;32853;52.164;5.400;2023-02-08T13:16:57;7.65;;;3.90;;
47103;SDS011;32853;52.164;5.400;2023-02-08T13:19:28;8.40;;;3.83;;
47103;SDS011;32853;52.164;5.400;2023-02-08T13:22:01;6.93;;;4.05;;
47103;SDS011;32853;52.164;5.400;2023-02-08T13:24:40;5.35;;;3.13;;
47103;SDS011;32853;52.164;5.400;2023-02-08T13:29:47;8.57;;;3.72;;
47103;SDS011;32853;52.164;5.400;2023-02-08T13:34:58;14.10;;;4.40;;
47103;SDS011;32853;52.164;5.400;2023-02-08T13:37:31;7.65;;;3.70;;
47103;SDS011;32853;52.164;5.400;2023-02-08T13:40:00;6.05;;;3.47;;
47103;SDS011;32853;52.164;5.400;2023-02-08T13:42:32;8.38;;;4.28;;
47103;SDS011;32853;52.164;5.400;2023-02-08T13:45:02;7.53;;;3.55;;
47103;SDS011;32853;52.164;5.400;2023-02-08T13:47:30;6.82;;;3.42;;
47103;SDS011;32853;52.164;5.400;2023-02-08T13:50:00;8.48;;;3.95;;
47103;SDS011;32853;52.164;5.400;2023-02-08T13:58:23;10.07;;;3.63;;
47103;SDS011;32853;52.164;5.400;2023-02-08T14:03:24;6.38;;;3.85;;
47103;SDS011;32853;52.164;5.400;2023-02-08T14:13:46;10.02;;;4.68;;
47103;SDS011;32853;52.164;5.400;2023-02-08T14:18:56;7.00;;;3.78;;
47103;SDS011;32853;52.164;5.400;2023-02-08T14:21:29;8.77;;;4.68;;
47103;SDS011;32853;52.164;5.400;2023-02-08T14:27:04;9.40;;;4.32;;
47103;SDS011;32853;52.164;5.400;2023-02-08T14:29:30;9.13;;;4.75;;
47103;SDS011;32853;52.164;5.400;2023-02-08T14:31:57;10.38;;;5.38;;
47103;SDS011;32853;52.164;5.400;2023-02-08T14:34:27;7.70;;;4.35;;
47103;SDS011;32853;52.164;5.400;2023-02-08T14:39:35;9.68;;;4.65;;
47103;SDS011;32853;52.164;5.400;2023-02-08T14:42:05;10.00;;;5.00;;
47103;SDS011;32853;52.164;5.400;2023-02-08T14:50:19;8.70;;;5.18;;
47103;SDS011;32853;52.164;5.400;2023-02-08T14:52:50;9.05;;;4.97;;
47103;SDS011;32853;52.164;5.400;2023-02-08T14:55:42;10.55;;;3.72;;
47103;SDS011;32853;52.164;5.400;2023-02-08T14:58:13;5.00;;;2.97;;
47103;SDS011;32853;52.164;5.400;2023-02-08T15:00:46;5.70;;;3.20;;
47103;SDS011;32853;52.164;5.400;2023-02-08T15:03:15;5.82;;;3.00;;
47103;SDS011;32853;52.164;5.400;2023-02-08T15:05:45;7.00;;;2.97;;
47103;SDS011;32853;52.164;5.400;2023-02-08T15:08:40;6.85;;;2.90;;
47103;SDS011;32853;52.164;5.400;2023-02-08T15:11:15;5.65;;;2.53;;
47103;SDS011;32853;52.164;5.400;2023-02-08T15:13:55;5.17;;;2.17;;
47103;SDS011;32853;52.164;5.400;2023-02-08T15:18:59;3.40;;;1.90;;
47103;SDS011;32853;52.164;5.400;2023-02-08T15:21:27;4.07;;;2.10;;
47103;SDS011;32853;52.164;5.400;2023-02-08T15:29:22;6.20;;;2.10;;
47103;SDS011;32853;52.164;5.400;2023-02-08T15:31:55;3.95;;;1.60;;
47103;SDS011;32853;52.164;5.400;2023-02-08T15:34:24;9.15;;;2.63;;
47103;SDS011;32853;52.164;5.400;2023-02-08T15:36:51;3.38;;;1.98;;
47103;SDS011;32853;52.164;5.400;2023-02-08T15:39:27;4.15;;;1.92;;
47103;SDS011;32853;52.164;5.400;2023-02-08T15:42:02;5.75;;;1.77;;
47103;SDS011;32853;52.164;5.400;2023-02-08T15:44:29;5.38;;;2.67;;
47103;SDS011;32853;52.164;5.400;2023-02-08T15:47:00;4.53;;;1.85;;
47103;SDS011;32853;52.164;5.400;2023-02-08T15:49:35;4.35;;;1.92;;
47103;SDS011;32853;52.164;5.400;2023-02-08T15:52:03;6.70;;;2.60;;
47103;SDS011;32853;52.164;5.400;2023-02-08T15:54:30;4.18;;;2.28;;
47103;SDS011;32853;52.164;5.400;2023-02-08T15:57:00;5.15;;;2.17;;
47103;SDS011;32853;52.164;5.400;2023-02-08T16:00:28;6.13;;;2.40;;
47103;SDS011;32853;52.164;5.400;2023-02-08T16:02:58;6.93;;;2.47;;
47103;SDS011;32853;52.164;5.400;2023-02-08T16:05:33;5.72;;;2.45;;
47103;SDS011;32853;52.164;5.400;2023-02-08T16:08:13;3.83;;;2.10;;
47103;SDS011;32853;52.164;5.400;2023-02-08T16:10:46;6.47;;;2.47;;
47103;SDS011;32853;52.164;5.400;2023-02-08T16:21:51;4.25;;;2.42;;
47103;SDS011;32853;52.164;5.400;2023-02-08T16:24:20;9.35;;;2.15;;
47103;SDS011;32853;52.164;5.400;2023-02-08T16:26:59;5.80;;;2.67;;
47103;SDS011;32853;52.164;5.400;2023-02-08T16:29:31;3.53;;;2.03;;
47103;SDS011;32853;52.164;5.400;2023-02-08T16:32:17;3.83;;;2.10;;
47103;SDS011;32853;52.164;5.400;2023-02-08T16:34:46;3.55;;;1.88;;
47103;SDS011;32853;52.164;5.400;2023-02-08T16:37:44;7.22;;;2.20;;
47103;SDS011;32853;52.164;5.400;2023-02-08T16:43:20;5.18;;;2.40;;
47103;SDS011;32853;52.164;5.400;2023-02-08T16:48:33;4.88;;;2.30;;
47103;SDS011;32853;52.164;5.400;2023-02-08T16:51:02;24.42;;;11.70;;
47103;SDS011;32853;52.164;5.400;2023-02-08T16:53:29;8.00;;;4.30;;
47103;SDS011;32853;52.164;5.400;2023-02-08T16:56:04;3.08;;;2.53;;
47103;SDS011;32853;52.164;5.400;2023-02-08T16:58:33;4.78;;;2.45;;
47103;SDS011;32853;52.164;5.400;2023-02-08T17:00:58;7.75;;;3.00;;
47103;SDS011;32853;52.164;5.400;2023-02-08T17:03:24;5.28;;;2.40;;
47103;SDS011;32853;52.164;5.400;2023-02-08T17:05:49;5.65;;;2.72;;
47103;SDS011;32853;52.164;5.400;2023-02-08T17:08:17;4.65;;;2.47;;
47103;SDS011;32853;52.164;5.400;2023-02-08T17:10:50;5.18;;;2.38;;
47103;SDS011;32853;52.164;5.400;2023-02-08T17:13:22;7.30;;;3.17;;
47103;SDS011;32853;52.164;5.400;2023-02-08T17:15:52;7.63;;;3.45;;
47103;SDS011;32853;52.164;5.400;2023-02-08T17:18:18;4.15;;;2.78;;
47103;SDS011;32853;52.164;5.400;2023-02-08T17:23:38;10.40;;;2.75;;
47103;SDS011;32853;52.164;5.400;2023-02-08T17:26:17;6.63;;;3.42;;
47103;SDS011;32853;52.164;5.400;2023-02-08T17:28:46;6.82;;;3.22;;
47103;SDS011;32853;52.164;5.400;2023-02-08T17:31:14;9.93;;;3.20;;
47103;SDS011;32853;52.164;5.400;2023-02-08T17:33:43;6.38;;;3.33;;
47103;SDS011;32853;52.164;5.400;2023-02-08T17:36:09;8.85;;;3.50;;
47103;SDS011;32853;52.164;5.400;2023-02-08T17:38:45;8.77;;;3.42;;
47103;SDS011;32853;52.164;5.400;2023-02-08T17:41:25;9.13;;;4.18;;
47103;SDS011;32853;52.164;5.400;2023-02-08T17:43:55;8.07;;;3.83;;
47103;SDS011;32853;52.164;5.400;2023-02-08T17:46:22;11.20;;;4.28;;
47103;SDS011;32853;52.164;5.400;2023-02-08T17:48:51;10.38;;;3.20;;
47103;SDS011;32853;52.164;5.400;2023-02-08T17:51:22;9.98;;;3.65;;
47103;SDS011;32853;52.164;5.400;2023-02-08T17:53:49;9.50;;;3.38;;
47103;SDS011;32853;52.164;5.400;2023-02-08T17:56:22;10.18;;;4.07;;
47103;SDS011;32853;52.164;5.400;2023-02-08T17:58:49;9.45;;;3.20;;
47103;SDS011;32853;52.164;5.400;2023-02-08T18:01:17;8.57;;;3.55;;
47103;SDS011;32853;52.164;5.400;2023-02-08T18:03:45;8.40;;;3.92;;
47103;SDS011;32853;52.164;5.400;2023-02-08T18:06:13;10.70;;;3.72;;
47103;SDS011;32853;52.164;5.400;2023-02-08T18:08:39;6.47;;;3.63;;
47103;SDS011;32853;52.164;5.400;2023-02-08T18:11:05;8.50;;;3.67;;
47103;SDS011;32853;52.164;5.400;2023-02-08T18:13:33;10.43;;;4.32;;
47103;SDS011;32853;52.164;5.400;2023-02-08T18:16:04;9.48;;;3.70;;
47103;SDS011;32853;52.164;5.400;2023-02-08T18:18:40;9.80;;;3.40;;
47103;SDS011;32853;52.164;5.400;2023-02-08T18:24:02;10.13;;;3.80;;
47103;SDS011;32853;52.164;5.400;2023-02-08T18:26:28;13.23;;;4.47;;